Terminal Aerodrome Forecast
Issued by NWS Goodland, KS

Home | Current Version | Previous Version | Text Only | Print | Product List | Glossary On
Versions: 1 2 3 4 5 6 7 8 9 10 11 12 13 14 15 16 17 18
972
FTUS43 KGLD 031134 AAB
TAFGLD
TAF AMD
KGLD 031134Z 0312/0412 31006KT P6SM SCT060 BKN090
     FM031500 34013G19KT P6SM SCT200
     FM040100 31008KT P6SM SKC
     FM040600 28008KT P6SM SKC=

USA.gov is the U.S. government's official web portal to all federal, state and local government web resources and services.